Terminal Aerodrome Forecast
Issued by NWS

Home | Current Version | Previous Version | Text Only | Print | Product List | Glossary Off
Versions: 1 2 3 4 5 6 7 8 9 10 11 12 13 14 15 16

000
FTUS43 KIWX 291100 RRA
TAFSBN
TAF
KSBN 291143Z 2912/3012 18012KT P6SM OVC070
     FM291430 23012KT P6SM OVC025
     FM291600 30013G21KT 4SM -RASN BR OVC008
     FM291900 31016G25KT P6SM VCSH BKN008 OVC015
     FM292300 32013G22KT 4SM -SHSN OVC012
     FM300800 34014G24KT 2SM -SHSN OVC010=

USA.gov is the U.S. government's official web portal to all federal, state and local government web resources and services.